Airfield :
LOGIN :

Register | Disclaimer

   EN    FR    IT 

 










Legend :    VFR   Marginal VFR   IFR   Intensive IFR   Very Intensive IFR
Visi :
Ceiling :
>= 8 km
>= 3000ft
5 to 8 km
1000 to 3000 ft
1500m to 5 km
500 to 1000 ft
800 to 1500m
200 to 500 ft
< 800m
< 200 ft
Symbols :   Thunderstorms  Fog  Heavy snow  Heavy precipitations  Wind > 20 kt
SIGMETs :     Misc.  Thunderstorms  Icing  Turbulence  Mountain Waves  Volcanic Ashes






- Airport Elevation : 545 ft
- IATA code : PZY


LZPP - Piešťany

CURRENT METAR :
  • 291630Z 32003KT 290V350 9999 SCT025 SCT070 03/00 Q1009

EXPIRED METARs :
  • 291600Z VRB02KT 9999 SCT025 SCT070 03/01 Q1009
  • 291530Z 11005KT 9999 FEW015 SCT025 03/01 Q1008
  • 291500Z 10003KT 9999 FEW015 SCT022 BKN070 03/01 Q1008
  • 291430Z 13005KT 9999 SCT020 BKN070 04/01 Q1008
  • 291400Z 13003KT 090V190 9999 BKN020 BKN070 03/02 Q1008

TAF TAF LZPP
Valid from the 29 at 15:00 until the 30 at 00:00 UTC


291400Z 2915/3000 25006KT 9999 SCT014 BKN035
TEMPO 2919/3000 3000 -SHSN BKN009



MET'MAP, your aeronautical weather chart ! - Copyright ORBIFLY December 2007 - Disclaimer

ORBIFLY MET'MAP TEAM :

Programming & Development : Alexandra Zaïnal
Concept & original design : Baudouin d'Aumeries
Assistance for programming : Marc-Olivier Méhu
Technical & hardware support : Manuel Goepfert

Contact : metmap@orbifly.com




SOURCES & CREDITS :

   NOAA